Date,TemperatureHighF,TemperatureAvgF,TemperatureLowF,DewpointHighF,DewpointAvgF,DewpointLowF,HumidityHigh,HumidityAvg,HumidityLow,PressureMaxIn,PressureMinIn,WindSpeedMaxMPH,WindSpeedAvgMPH,GustSpeedMaxMPH,PrecipitationSumIn
2013-5-14,64.7,58.3,53.2,46.5,43.3,41.4,78,58,46,29.83,29.74,10,2,12,0.00
2013-5-15,82.0,68.2,49.7,60.0,48.7,40.8,98,56,27,29.77,29.56,12,2,15,0.01
2013-5-16,81.1,65.3,45.7,49.9,43.4,36.3,91,49,25,30.02,29.75,8,1,6,0.00
2013-5-17,71.7,58.5,45.5,47.3,41.7,37.6,80,55,35,30.16,30.01,8,1,0,0.00
2013-5-18,78.8,63.5,52.2,49.7,44.6,40.6,73,53,27,30.15,30.05,9,2,0,0.00
2013-5-20,89.3,83.3,71.4,66.7,62.2,58.8,69,50,40,29.80,29.74,14,2,17,0.00
2013-5-21,86.7,77.5,65.8,68.2,62.1,57.5,87,61,38,29.79,29.68,9,1,12,0.00
2013-5-22,83.0,72.2,64.1,65.4,61.9,56.1,91,71,43,29.71,29.58,17,2,17,0.14
2013-5-23,64.4,52.6,41.4,61.4,49.9,36.2,98,90,78,30.13,29.65,13,2,17,0.18
2013-5-24,53.9,45.2,37.3,36.5,34.1,30.8,88,66,45,30.36,30.13,14,2,14,0.00
2013-5-25,64.9,50.0,32.3,40.2,34.4,28.2,97,60,32,30.41,30.28,7,1,0,0.00
2013-5-26,69.5,53.2,33.3,39.6,34.3,29.2,95,54,28,30.34,30.24,8,1,12,0.00
2013-5-27,66.4,51.7,37.4,50.2,40.9,30.9,95,70,36,30.27,30.04,9,1,12,0.46
2013-5-28,70.1,59.7,50.4,68.0,58.6,49.0,99,96,91,30.04,29.80,7,0,0,0.66
2013-5-29,85.2,74.9,66.4,68.2,64.9,58.6,96,73,43,29.97,29.74,8,1,12,0.03
2013-5-30,89.7,72.6,59.2,71.2,65.4,58.6,99,81,48,30.04,29.94,9,1,13,0.16
2013-5-31,85.1,73.3,63.3,70.2,66.5,62.8,99,81,57,29.97,29.83,12,2,18,0.25
2013-6-1,82.5,72.5,64.1,67.5,64.2,60.1,97,77,54,29.85,29.66,9,1,14,0.07
2013-6-2,72.7,66.3,55.0,65.4,57.0,44.6,92,73,58,29.95,29.62,11,2,12,0.00
2013-6-3,68.0,57.0,44.0,45.4,41.0,35.3,85,57,34,30.06,29.95,8,1,0,0.00
2013-6-4,71.6,59.1,46.9,49.0,41.5,20.8,87,55,21,30.20,30.06,7,1,0,0.00
2013-6-5,72.5,61.2,48.7,49.6,42.9,32.2,71,53,31,30.17,29.98,9,1,0,0.00
2013-6-6,65.4,59.9,56.0,53.2,47.3,40.6,75,63,51,30.00,29.84,11,2,12,0.00
2013-6-7,60.9,56.2,50.6,53.4,50.9,48.3,92,82,74,29.90,29.84,7,1,0,0.00
2013-6-8,72.5,62.2,56.4,55.6,52.2,49.9,85,71,49,30.07,29.89,5,0,0,0.00
2013-6-9,75.8,65.5,52.3,57.2,53.1,48.3,95,67,48,30.12,29.95,10,1,0,0.00
2013-6-10,69.9,64.6,59.2,67.8,62.2,49.9,99,92,55,29.95,29.71,8,0,0,0.88
2013-6-11,81.0,70.8,62.2,65.5,63.5,61.6,100,80,54,29.85,29.73,7,1,0,0.00
2013-6-12,75.5,68.3,59.0,67.1,64.0,58.4,99,87,71,29.90,29.65,7,0,0,0.02
2013-6-13,77.2,68.4,60.5,63.1,58.0,51.6,98,72,46,29.89,29.54,12,2,14,0.97
2013-6-14,75.8,66.3,57.1,55.7,53.4,49.5,84,65,42,30.05,29.89,9,2,0,0.00
2013-6-15,80.6,67.1,50.8,62.2,56.5,49.6,99,72,44,30.07,29.89,8,1,0,0.00
2013-6-16,81.4,72.3,64.8,66.9,61.0,51.3,95,70,39,29.90,29.72,10,2,0,0.16
2013-6-17,85.3,70.4,56.5,62.7,57.6,53.4,91,67,39,29.91,29.81,13,1,16,0.00
2013-6-18,71.7,62.8,53.9,57.8,51.0,40.0,95,68,42,30.07,29.87,9,2,13,0.05
2013-6-19,62.6,52.3,48.0,47.7,43.0,39.9,85,71,55,30.16,30.06,5,0,0,0.00
2013-6-23,84.6,82.7,79.0,68.5,66.1,65.0,64,58,53,29.97,29.94,7,1,0,0.00
2013-6-24,89.0,79.8,69.0,71.1,67.3,63.6,85,67,49,30.02,29.87,9,1,0,0.00
2013-6-25,84.5,74.9,68.3,71.2,67.4,63.4,94,78,61,29.93,29.78,7,1,12,0.16
2013-6-26,88.1,75.7,66.2,72.6,67.7,64.5,96,78,49,29.83,29.71,6,1,0,0.13
2013-6-27,86.1,74.4,65.4,72.0,68.3,63.7,98,83,50,29.73,29.60,11,1,13,0.99
2013-6-28,75.3,68.1,62.9,66.6,64.6,59.9,99,89,67,29.61,29.49,8,1,0,0.34
2013-6-29,76.8,68.3,62.7,64.7,61.1,55.0,98,79,55,29.71,29.51,9,1,0,0.00
2013-6-30,78.1,68.5,59.5,63.1,57.1,44.8,93,69,47,29.93,29.71,13,2,17,0.00
2013-7-1,69.0,64.1,60.1,59.9,54.6,46.2,91,72,56,30.04,29.91,11,2,14,0.00
2013-7-2,75.2,67.5,61.4,63.6,59.1,55.2,84,75,64,30.06,30.00,7,1,0,0.00
2013-7-3,85.9,72.6,59.7,70.5,63.4,57.3,94,74,45,30.08,30.02,13,1,14,0.01
2013-7-4,85.0,76.6,70.7,69.9,66.8,61.8,91,73,48,30.09,30.03,8,1,0,0.00
2013-7-5,74.4,72.3,70.2,69.3,68.0,65.0,94,87,73,30.07,30.02,1,0,0,0.02
2013-7-6,85.9,75.2,67.1,71.2,68.4,65.7,99,81,57,30.08,29.95,7,1,0,0.11
2013-7-7,81.6,75.6,70.3,71.0,69.1,65.8,97,82,62,29.99,29.92,5,1,0,0.02
2013-7-8,86.3,74.0,68.7,74.9,69.2,65.9,97,86,64,30.00,29.92,8,1,0,0.61
2013-7-9,90.1,78.0,71.2,74.1,71.0,67.8,98,81,50,29.95,29.82,13,1,13,0.07
2013-7-10,91.2,78.7,68.8,75.9,69.4,56.8,98,75,51,29.90,29.70,9,1,16,1.13
2013-7-11,78.7,69.4,57.7,59.8,56.6,53.2,90,65,45,30.05,29.90,9,1,0,0.00
2013-7-12,82.4,69.5,54.8,63.7,58.4,53.6,96,71,42,30.14,30.05,7,1,0,0.00
2013-7-13,82.8,73.2,60.3,65.8,61.3,55.9,94,69,42,30.20,30.12,8,1,0,0.00
2013-7-14,89.8,78.5,65.4,72.4,67.7,63.3,93,71,47,30.23,30.18,7,1,0,0.00
2013-7-15,90.3,79.5,70.3,76.0,72.2,68.0,96,80,60,30.26,30.19,8,0,0,0.22
2013-7-16,94.0,82.6,73.5,78.2,75.8,73.0,99,81,54,30.27,30.18,7,0,0,0.00
2013-7-17,96.0,85.1,73.1,78.2,74.5,71.4,95,72,49,30.23,30.09,7,1,0,0.00
2013-7-18,94.3,84.4,73.4,78.8,73.6,69.6,93,71,49,30.11,29.90,11,1,16,0.10
2013-7-19,95.3,84.2,74.3,76.7,72.7,60.9,87,70,43,29.92,29.66,15,2,23,0.27
2013-7-20,86.3,77.5,69.5,73.1,64.8,56.2,96,68,38,29.91,29.66,8,1,0,0.13
2013-7-21,82.0,72.5,63.1,63.8,59.7,53.1,78,65,49,29.98,29.89,5,1,0,0.00
2013-7-22,81.3,74.0,66.4,69.8,63.4,59.0,87,70,49,29.94,29.73,7,1,0,0.00
2013-7-23,82.0,71.2,61.0,72.1,65.3,52.1,94,82,60,29.84,29.64,11,2,14,0.20
2013-7-24,71.9,62.6,55.4,53.2,50.2,48.0,77,65,49,30.03,29.84,9,2,12,0.00
2013-7-25,78.7,64.9,48.7,58.0,52.6,47.3,97,67,40,30.09,30.03,5,0,0,0.00
2013-7-26,80.7,69.2,54.4,61.4,56.8,53.3,97,68,41,30.09,29.88,7,1,0,0.00
2013-7-27,74.3,66.8,58.4,67.5,62.3,53.3,94,86,70,29.88,29.70,7,1,0,0.32
2013-7-28,68.1,59.2,49.3,59.5,52.2,47.7,98,78,57,29.95,29.80,8,1,0,0.10
2013-7-29,70.0,62.3,56.4,56.7,54.4,52.3,92,76,60,30.16,29.95,8,1,0,0.00
2013-7-30,78.5,66.4,50.4,60.2,56.1,49.9,99,72,45,30.22,30.10,7,0,0,0.00
2013-7-31,77.0,68.1,60.3,67.4,63.3,57.1,97,85,68,30.11,29.83,4,0,0,0.23
2013-8-1,80.0,69.5,62.4,66.1,60.4,52.4,98,75,40,29.88,29.83,8,1,0,0.00
2013-8-2,78.9,67.0,54.3,63.9,58.6,52.6,97,76,49,29.90,29.81,9,1,13,0.00
2013-8-3,78.3,69.2,55.1,64.0,56.9,50.6,99,68,39,30.02,29.85,7,1,0,0.02
2013-8-4,74.3,64.2,53.3,58.9,53.8,48.0,95,71,48,30.13,30.02,10,1,13,0.00
2013-8-5,74.3,63.5,51.3,59.3,52.7,47.8,95,70,45,30.11,29.95,6,0,0,0.00
2013-8-6,79.8,70.1,63.6,68.0,63.0,59.0,94,79,59,29.96,29.86,10,1,0,0.05
2013-8-7,84.9,73.8,65.5,71.5,66.5,62.6,94,79,56,29.88,29.78,9,1,0,0.01
2013-8-8,77.3,70.0,63.7,67.0,63.0,54.8,93,79,61,29.98,29.85,6,1,0,0.00
2013-8-9,81.7,71.0,59.4,61.0,56.9,51.6,92,64,37,29.97,29.90,9,1,0,0.00
2013-8-10,77.5,68.9,58.7,60.9,57.9,53.6,91,70,49,30.11,29.97,6,0,0,0.00
2013-8-11,81.5,69.1,57.3,64.2,58.1,53.4,88,70,43,30.10,29.99,6,1,0,0.00
2013-8-12,71.3,66.4,62.5,67.3,63.4,59.3,98,90,79,30.03,29.81,8,0,0,1.21
2013-8-13,66.8,62.6,55.1,65.7,53.5,45.6,99,74,50,30.02,29.78,12,2,13,0.00
2013-8-14,71.3,60.1,50.3,53.6,49.0,45.8,89,68,46,30.13,30.02,8,1,0,0.00
2013-8-15,76.0,62.9,46.5,53.1,49.5,44.8,98,65,34,30.16,30.06,5,0,0,0.00
2013-8-16,80.8,66.3,52.7,58.4,53.9,50.6,96,68,38,30.19,30.09,5,0,0,0.00
2013-8-17,79.5,66.7,51.7,62.4,55.2,50.3,98,70,39,30.25,30.17,8,1,0,0.00
2013-8-18,82.0,69.7,55.9,65.6,57.8,52.2,97,69,37,30.20,30.08,5,0,0,0.00
2013-8-19,85.2,71.1,56.0,62.8,56.6,44.6,97,65,25,30.10,30.00,7,0,0,0.00
2013-8-20,87.9,74.2,57.5,65.4,61.4,56.3,98,68,40,30.10,30.03,5,0,0,0.00
2013-8-21,89.1,77.0,63.5,68.0,65.5,61.9,96,70,44,30.10,29.95,13,1,13,0.00
2013-8-22,84.3,77.7,70.1,68.0,66.1,62.8,86,69,50,30.01,29.91,8,1,0,0.00
2013-8-23,83.2,71.2,56.6,63.5,55.8,46.7,95,62,31,30.18,30.00,7,1,12,0.00
2013-8-24,81.7,67.8,53.1,64.3,57.1,51.8,99,72,41,30.30,30.18,8,1,0,0.00
2013-8-25,89.4,73.6,53.8,64.8,59.5,52.9,99,66,34,30.28,30.10,9,1,0,0.00
2013-8-26,90.6,79.4,69.2,75.9,67.0,61.6,85,67,51,30.12,29.92,6,1,0,0.13
2013-8-27,82.3,76.9,70.0,75.9,72.0,67.9,97,85,71,29.94,29.80,11,0,17,0.62
2013-8-28,84.3,77.1,71.4,74.3,71.6,67.8,97,84,61,29.97,29.74,8,1,0,0.01
2013-8-29,87.5,76.5,65.8,71.3,67.7,64.0,95,76,52,30.04,29.96,4,0,0,0.00
2013-8-30,89.1,76.9,64.1,71.6,67.9,63.5,99,77,48,29.97,29.70,13,1,16,1.14
2013-8-31,79.2,72.9,66.7,70.8,68.1,63.8,99,86,66,29.82,29.70,6,1,0,0.03
2013-9-1,80.5,71.0,65.0,71.2,66.7,63.1,97,87,71,29.83,29.69,4,0,0,0.00
2013-9-2,76.1,69.2,60.6,70.8,61.9,51.9,98,79,59,29.88,29.68,8,2,0,0.03
2013-9-3,74.9,64.1,56.7,57.4,53.7,51.7,88,70,48,29.98,29.87,7,1,0,0.00
2013-9-4,81.6,68.4,52.5,62.9,57.8,51.3,98,72,45,30.04,29.95,7,1,0,0.00
2013-9-5,70.8,62.6,50.1,61.6,51.2,45.8,94,68,43,30.25,30.04,10,1,0,0.00
2013-9-6,76.7,60.5,43.4,52.7,43.3,29.8,98,61,19,30.27,30.05,5,0,0,0.00
2013-9-7,82.1,68.3,53.2,70.3,59.9,49.9,93,76,56,30.06,29.86,6,0,0,0.00
2013-9-8,73.5,68.1,56.0,67.5,57.3,46.5,89,70,45,30.07,29.88,9,1,13,0.01
2013-9-9,77.0,63.9,50.4,68.6,59.3,48.8,96,85,69,30.06,29.88,5,0,0,0.00
2013-9-10,96.3,82.4,68.0,74.1,69.0,62.7,95,68,35,29.96,29.85,8,1,0,0.00
2013-9-11,92.9,78.9,67.7,73.8,68.6,65.0,97,73,49,29.98,29.84,11,1,21,0.90
2013-9-12,78.8,68.5,55.7,68.5,61.2,48.3,98,80,43,29.92,29.79,17,2,20,0.17
2013-9-13,59.9,53.8,41.7,50.1,45.3,38.8,93,74,55,30.12,29.92,13,3,15,0.00
2013-9-14,69.2,53.9,38.0,48.1,42.1,37.2,98,69,32,30.18,30.07,7,0,0,0.00
2013-9-15,64.5,55.3,46.9,54.2,50.1,45.8,97,84,56,30.11,30.04,4,0,0,0.04
2013-9-16,62.6,55.3,45.0,54.3,47.8,40.6,99,78,51,30.37,30.10,10,1,13,0.01
2013-9-17,66.1,52.0,39.5,52.6,43.4,38.2,97,75,44,30.41,30.22,7,1,0,0.00
2013-9-18,76.3,59.4,42.6,58.7,50.7,42.1,99,77,42,30.22,30.02,8,0,0,0.00
2013-9-19,80.3,67.8,54.8,68.8,62.4,53.6,97,84,64,30.04,29.89,7,1,0,0.02
2013-9-20,83.3,72.3,67.9,72.3,68.2,65.0,97,88,61,29.90,29.69,7,1,0,0.67
2013-9-21,68.0,63.0,54.5,67.1,56.6,44.9,97,81,55,29.84,29.63,12,2,12,0.16
2013-9-22,60.7,52.5,44.6,47.8,43.0,39.8,92,71,54,30.08,29.84,10,2,0,0.00
2013-9-23,62.6,50.5,39.7,46.3,42.8,38.7,98,77,51,30.19,30.08,4,0,0,0.00
2013-9-24,67.4,53.5,39.7,51.6,45.9,39.2,99,78,48,30.15,29.99,7,0,0,0.00
2013-9-25,71.6,56.3,43.8,53.0,47.8,43.0,99,76,41,30.01,29.94,5,0,0,0.00
2013-9-26,76.9,59.4,43.4,54.7,48.3,42.9,99,72,36,30.13,29.98,4,0,0,0.00
2013-9-27,71.3,55.0,45.3,58.8,50.6,44.8,99,87,55,30.23,30.13,5,0,0,0.00
2013-10-7,58.2,51.7,43.7,51.1,47.3,42.8,98,86,69,30.10,29.77,9,1,12,0.07
2013-10-8,67.9,52.0,38.6,51.5,44.0,38.3,99,78,42,30.29,30.10,7,0,0,0.00
2013-10-9,70.0,53.8,39.7,58.2,45.9,39.2,99,78,43,30.32,30.22,7,0,0,0.00
2013-10-10,69.9,53.6,40.6,56.9,45.0,39.1,99,77,37,30.23,30.12,6,0,0,0.00
2013-10-11,72.2,53.3,38.9,51.1,42.9,37.4,99,75,29,30.16,30.07,4,0,0,0.00
2013-10-16,63.7,56.9,52.7,48.3,46.7,44.8,82,69,53,29.88,29.79,10,2,12,0.03
2013-10-17,53.7,51.9,50.3,50.0,48.0,46.7,94,87,82,29.88,29.75,4,0,0,0.17
2013-10-18,61.8,54.9,46.7,43.7,41.7,39.4,83,62,44,29.89,29.82,6,0,0,0.00
2013-10-19,49.9,44.8,40.4,43.4,40.9,37.0,95,87,73,29.88,29.72,6,0,0,0.23
2013-10-20,57.2,46.6,35.0,43.4,39.5,33.6,97,78,54,29.91,29.83,5,0,0,0.00
2013-10-21,53.6,48.4,39.5,48.5,43.5,34.1,93,83,74,29.83,29.78,7,1,0,0.09
2013-10-22,48.7,41.7,30.5,36.8,31.1,26.9,88,67,48,29.90,29.82,11,1,12,0.00
2013-10-23,47.2,40.0,29.3,35.6,30.6,23.2,98,71,42,29.92,29.80,8,1,0,0.01
2013-10-24,48.4,38.2,29.6,34.4,30.2,26.1,94,75,44,30.16,29.91,9,1,0,0.00
2013-10-25,49.1,38.3,30.4,36.2,31.0,28.0,95,77,47,30.32,30.16,8,1,0,0.00
2013-10-26,51.7,43.3,36.7,39.2,34.0,27.8,93,71,49,29.98,29.75,9,1,13,0.06
2013-10-27,51.0,40.5,29.3,36.1,32.8,27.9,97,76,51,30.07,29.97,7,0,0,0.00
2013-10-28,50.5,40.0,29.9,41.4,33.5,28.0,96,78,65,30.40,30.04,7,1,0,0.00
2013-10-29,47.7,41.8,36.7,36.1,32.5,29.0,81,70,51,30.45,30.25,5,0,0,0.00
2013-10-30,62.7,44.0,30.3,46.4,36.7,29.1,98,78,49,30.25,30.07,5,0,0,0.00
2013-10-31,61.7,59.5,57.8,60.3,58.3,56.7,98,95,90,29.68,29.13,19,3,19,1.69
2013-11-1,60.7,51.2,46.5,59.6,44.8,39.5,97,79,62,29.64,29.08,15,2,18,0.07
2013-11-2,47.5,43.6,35.1,44.7,40.6,31.5,97,89,80,30.09,29.63,7,1,0,0.23
2013-11-3,44.2,36.5,30.4,34.7,31.4,28.5,97,82,61,30.47,30.09,6,0,0,0.00
2013-11-4,47.2,38.8,28.0,33.6,30.7,26.3,98,74,52,30.50,30.35,13,2,14,0.00
2013-11-6,56.1,49.7,43.6,52.7,46.0,39.1,90,87,84,29.97,29.80,10,3,13,0.23
2013-11-7,43.6,40.4,34.2,39.0,30.7,23.3,88,69,48,30.11,29.95,13,2,14,0.00
2013-11-8,45.4,35.5,27.4,31.0,27.3,24.5,91,73,48,30.28,30.10,8,1,0,0.00
2013-11-9,57.1,47.5,34.6,41.0,35.9,30.0,88,65,50,30.19,29.77,13,2,18,0.00
2013-11-10,48.7,42.1,30.0,36.7,30.9,26.9,90,65,53,30.25,29.87,14,3,16,0.00
2013-11-11,42.8,36.2,28.0,39.0,30.9,21.4,95,81,72,30.30,30.01,11,2,14,0.09
2013-11-12,34.7,28.6,23.4,22.3,19.0,15.3,80,68,49,30.53,30.30,14,3,16,0.00
2013-11-13,42.3,36.4,24.1,24.8,19.7,11.6,82,53,30,30.50,30.28,10,2,12,0.00
2013-11-14,49.9,42.7,28.9,25.5,23.2,19.7,69,47,36,30.13,29.98,11,2,12,0.00
2013-11-15,51.9,43.9,38.6,29.8,26.0,23.0,55,49,41,30.05,29.99,8,2,0,0.00
2013-11-16,55.5,49.7,30.3,51.2,45.4,29.3,96,85,79,30.11,29.82,11,2,13,0.00
2013-11-17,61.9,56.6,48.4,58.1,53.1,39.9,96,88,67,29.82,29.20,19,4,30,0.74
2013-11-18,48.5,42.2,35.4,41.5,32.1,23.3,79,67,59,30.11,29.41,17,5,26,0.00
2013-11-19,41.1,34.3,24.8,25.2,23.1,20.3,90,64,48,30.43,30.11,11,2,13,0.00
2013-11-20,44.2,32.8,22.9,34.6,27.4,21.2,95,82,55,30.47,30.26,11,1,13,0.00
2013-11-21,48.4,43.0,34.8,43.3,37.8,29.9,97,82,66,30.30,30.17,8,1,0,0.28
2013-11-22,45.4,39.7,26.2,44.6,37.1,22.7,98,90,74,30.35,30.11,13,2,15,0.07
2013-11-23,30.4,24.0,16.4,24.4,15.1,2.9,95,70,42,30.51,30.25,17,4,22,0.00
2013-11-24,25.5,18.9,14.4,14.0,9.4,7.0,79,67,49,30.60,30.44,13,2,13,0.00
2013-11-25,31.3,25.5,19.0,25.1,15.6,10.5,83,66,50,30.44,30.09,12,2,13,0.00
2013-11-26,34.9,31.9,29.6,28.1,26.6,24.8,86,80,74,30.12,29.91,8,1,0,0.00
2013-11-27,30.9,24.0,18.9,27.1,14.7,9.0,86,68,53,30.19,29.89,13,4,20,0.00
2013-11-28,28.0,21.6,14.8,22.5,15.6,9.4,91,78,63,30.44,30.19,6,0,0,0.00
2013-11-29,33.1,21.8,10.9,23.3,17.3,8.9,95,84,59,30.68,30.44,6,0,0,0.00
2013-11-30,42.8,33.6,20.2,28.9,25.9,18.8,95,74,53,30.59,30.10,7,1,0,0.00
2013-12-1,44.7,36.1,28.9,34.9,30.4,25.3,89,80,67,30.10,29.98,6,1,0,0.00
2013-12-2,39.4,32.9,25.1,31.1,25.7,21.1,88,75,52,29.99,29.89,5,0,0,0.00
2013-12-3,38.5,32.7,22.9,36.7,29.8,20.1,94,89,80,29.93,29.86,7,1,0,0.02
2013-12-4,56.0,45.1,37.8,51.6,42.4,36.4,96,91,84,29.91,29.63,9,1,0,0.01
2013-12-5,58.5,44.6,31.2,54.8,35.9,20.8,93,72,55,30.13,29.59,12,3,16,0.00
2013-12-6,31.2,26.6,19.9,21.6,17.0,12.4,72,66,59,30.41,30.10,7,2,0,0.00
2013-12-7,25.5,19.8,11.1,12.6,9.3,6.4,81,64,49,30.63,30.40,9,1,0,0.00
2013-12-8,29.3,19.4,10.1,27.4,13.7,6.3,93,78,63,30.62,30.02,9,1,0,0.00
2013-12-9,29.9,27.2,20.6,28.9,22.2,13.1,96,82,67,30.10,29.88,11,2,14,0.00
2013-12-10,22.2,18.6,12.9,18.3,9.2,2.1,90,67,45,30.19,29.96,11,2,17,0.00
2013-12-11,23.6,18.0,8.0,18.6,11.5,0.9,88,76,67,30.47,30.18,9,2,11,0.00
2013-12-12,18.6,13.1,3.4,12.0,5.6,-1.2,85,72,51,30.47,30.19,8,1,13,0.00
2013-12-13,27.4,23.2,18.7,20.4,17.0,10.5,83,77,69,30.33,30.16,5,1,9,0.00
2013-12-14,21.7,18.5,15.8,19.6,15.3,10.2,93,87,67,30.32,29.82,9,2,12,0.00
2013-12-15,25.4,19.8,11.6,22.5,15.2,6.1,92,82,66,30.04,29.80,11,2,17,0.00
2013-12-16,24.6,14.1,5.6,13.3,7.9,2.5,94,77,51,30.19,30.03,8,1,8,0.00
2013-12-17,27.4,21.0,13.2,23.5,18.1,11.2,94,88,80,30.03,29.89,8,1,10,0.00
2013-12-18,31.5,25.3,19.2,24.7,20.8,15.6,96,83,69,30.11,29.92,10,1,12,0.00
2013-12-19,41.5,32.6,24.1,32.5,26.6,16.7,90,78,69,30.00,29.87,4,0,7,0.12
2013-12-20,34.7,33.4,32.3,33.9,32.5,30.7,98,97,90,29.93,29.73,2,0,4,0.46
2013-12-21,34.3,33.0,31.8,33.2,32.2,30.8,98,97,95,29.87,29.68,8,1,12,0.66
2013-12-22,37.9,34.5,32.0,35.6,32.9,31.0,98,94,87,29.95,29.53,8,1,10,0.27
2013-12-23,34.9,29.1,22.8,33.1,24.0,16.5,96,81,69,30.30,29.95,10,2,12,0.00
2013-12-24,22.7,14.6,6.9,16.3,8.6,3.6,91,77,64,30.57,30.28,8,2,12,0.00
2013-12-25,24.6,18.2,6.5,22.1,14.8,4.3,93,86,79,30.53,30.14,10,1,14,0.00
2013-12-26,27.4,25.3,23.9,25.3,20.8,15.1,94,83,65,30.29,30.04,10,1,12,0.00
2013-12-27,38.4,32.4,24.8,32.0,28.0,21.5,92,84,74,30.32,30.05,7,1,10,0.06
2013-12-28,46.9,39.4,29.2,35.4,32.5,27.4,94,77,63,30.11,29.88,6,1,11,0.00
2013-12-29,43.2,34.9,21.5,32.6,28.3,15.5,91,77,64,29.99,29.67,10,2,12,0.00
2013-12-30,21.5,18.5,15.8,16.0,8.5,4.1,81,65,54,30.29,30.00,10,2,13,0.00
2013-12-31,20.6,17.3,13.7,16.6,10.7,5.4,89,75,61,30.35,30.06,7,2,13,0.00
2014-1-1,15.8,13.1,10.4,12.9,8.4,2.7,91,81,66,30.43,30.27,4,1,7,0.00
2014-1-2,14.3,11.4,2.8,11.9,8.0,-3.3,90,86,75,30.27,30.10,12,4,16,0.00